Terminal Aerodrome Forecast
Issued by NWS Greer, SC

Home | Current Version | Previous Version | Text Only | Print | Product List | Glossary On
Versions: 1 2 3 4 5 6 7 8 9 10 11 12 13 14 15 16 17 18 19 20
000
FTUS42 KGSP 262335
TAFCLT
TAF
KCLT 262335Z 2700/2724 16006KT P6SM VCSH FEW040 BKN100
     FM270400 16007KT P6SM VCSH BKN045
     FM270800 18005KT 5SM BR BKN045
      TEMPO 2710/2712 3SM BR FEW003 BKN015
     FM271200 19005KT P6SM BKN020
     FM271800 21007KT P6SM VCSH SCT040 BKN200=

USA.gov is the U.S. government's official web portal to all federal, state and local government web resources and services.